Flight Track Log - Related Links

Times and Time Zones

All times are in EDT time to prevent confusion due to time zone crossing. See the N983CA flight status page for this flight to view local times or setup timezone preferences in your user account.

Time Position Orientation Groundspeed Altitude Reporting Facility
EDT Latitude Longitude Course Direction KTS MPH feet Rate Location/Type
Mon 12:22:42 AM 32.7450 -117.2181 299° West 161 185 1,400  Level Los Angeles Center
Mon 12:23:43 AM 32.7725 -117.2781 299° West 213 245 3,200 2,262 Climbing Los Angeles Center
Mon 12:24:44 AM 32.8200 -117.3519 307° West 263 303 6,000 2,732 Climbing Los Angeles Center
Mon 12:25:46 AM 32.8725 -117.4200 313° West 278 320 8,800 2,780 Climbing Los Angeles Center
Mon 12:26:47 AM 32.9369 -117.5053 312° West 288 331 11,700 2,410 Climbing Los Angeles Center
Mon 12:27:48 AM 32.9931 -117.5806 312° West 300 345 13,700 1,951 Climbing Los Angeles Center
Mon 12:28:50 AM 33.0503 -117.6594 311° West 312 359 15,700 1,805 Climbing Los Angeles Center
Mon 12:29:51 AM 33.1108 -117.7389 312° West 320 368 17,400 1,561 Climbing Los Angeles Center
Mon 12:30:53 AM 33.1719 -117.8222 311° West 331 381 18,900 1,512 Climbing Los Angeles Center
Mon 12:31:54 AM 33.2111 -117.9261 294° West 344 396 20,500 1,426 Climbing Los Angeles Center
Mon 12:32:55 AM 33.2464 -118.0336 291° West 346 398 21,800 1,366 Climbing Los Angeles Center
Mon 12:33:57 AM 33.3036 -118.1308 305° West 370 426 23,300 1,366 Climbing Los Angeles Center
Mon 12:34:58 AM 33.3692 -118.2197 311° West 359 413 24,600 1,131 Climbing Los Angeles Center
Mon 12:35:59 AM 33.4367 -118.3103 312° West 363 418 25,600 683 Climbing Los Angeles Center
Mon 12:37:01 AM 33.5214 -118.4250 312° West 378 435 26,000 195 Climbing Los Angeles Center
Mon 12:38:02 AM 33.5992 -118.5275 312° West 406 467 26,000  Level Los Angeles Center
Mon 12:39:03 AM 33.6767 -118.6322 312° West 414 476 26,000  Level Los Angeles Center
Mon 12:40:05 AM 33.7517 -118.7328 312° West 406 467 26,000  Level Los Angeles Center
Mon 12:41:06 AM 33.8258 -118.8325 312° West 400 460 26,000  Level Los Angeles Center
Mon 12:42:07 AM 33.9006 -118.9347 311° West 403 464 26,000  Level Los Angeles Center
Mon 12:43:09 AM 33.9753 -119.0350 312° West 403 464 26,000  Level Los Angeles Center
Mon 12:44:10 AM 34.0497 -119.1381 311° West 406 467 26,000  Level Los Angeles Center
Mon 12:45:11 AM 34.1244 -119.2408 311° West 407 468 26,000  Level Los Angeles Center
Mon 12:46:13 AM 34.2036 -119.3381 315° West 406 467 26,000  Level Los Angeles Center
Mon 12:47:14 AM 34.2869 -119.4319 317° Northwest 409 471 26,000  Level Los Angeles Center
Mon 12:48:15 AM 34.3706 -119.5250 317° Northwest 409 471 26,000  Level Los Angeles Center
Mon 12:49:16 AM 34.4708 -119.6381 317° Northwest 410 472 26,000  Level Los Angeles Center
Mon 12:50:18 AM 34.5533 -119.7331 317° Northwest 409 471 26,000  Level Los Angeles Center
Mon 12:51:19 AM 34.6364 -119.8244 318° Northwest 410 472 26,000  Level Los Angeles Center
Mon 12:52:20 AM 34.7186 -119.9194 316° Northwest 408 470 26,000  Level Los Angeles Center
Mon 12:53:21 AM 34.7983 -120.0114 317° Northwest 397 457 26,000  Level Los Angeles Center
Mon 12:54:23 AM 34.8767 -120.1000 317° Northwest 402 463 26,000  Level Los Angeles Center
Mon 12:55:24 AM 34.9619 -120.1981 317° Northwest 420 483 26,000  Level Los Angeles Center
Mon 12:56:25 AM 35.0667 -120.3189 317° Northwest 433 498 26,000  Level Los Angeles Center
Mon 12:57:26 AM 35.1556 -120.4222 316° Northwest 442 509 26,000  Level Los Angeles Center
Mon 12:58:27 AM 35.2450 -120.5264 316° Northwest 446 513 26,000  Level Los Angeles Center
Mon 12:59:28 AM 35.3333 -120.6314 316° Northwest 445 512 26,000  Level Los Angeles Center
Mon 01:00:30 AM 35.4217 -120.7336 317° Northwest 440 506 26,000  Level Los Angeles Center
Mon 01:00:50 AM 35.4514 -120.7697 315° West 436 502 26,000  Level Oakland Center
Mon 01:01:50 AM 35.5386 -120.8728 316° Northwest 433 498 26,000  Level Oakland Center
Mon 01:02:51 AM 35.6158 -120.9631 316° Northwest 381 438 26,000  Level Oakland Center
Mon 01:03:52 AM 35.6889 -121.0469 317° Northwest 361 415 26,000  Level Oakland Center
Mon 01:04:53 AM 35.7703 -121.1161 325° Northwest 352 405 26,000  Level Oakland Center
Mon 01:05:53 AM 35.8506 -121.1850 325° Northwest 349 402 26,000  Level Oakland Center
Mon 01:06:54 AM 35.9308 -121.2536 325° Northwest 349 402 26,000  Level Oakland Center
Mon 01:07:55 AM 36.0133 -121.3242 325° Northwest 357 411 26,000  Level Oakland Center
Mon 01:08:56 AM 36.0953 -121.3936 326° Northwest 356 410 26,000  Level Oakland Center
Mon 01:09:56 AM 36.1914 -121.4786 324° Northwest 351 404 26,000 -595 Level Oakland Center
Mon 01:10:57 AM 36.2728 -121.5511 324° Northwest 357 411 24,800 -1,328 Descending Oakland Center
Mon 01:11:58 AM 36.3586 -121.6239 326° Northwest 367 422 23,300 -1,475 Descending Oakland Center
Mon 01:12:59 AM 36.4417 -121.6989 324° Northwest 366 421 21,800 -1,573 Descending Oakland Center
Mon 01:13:41 AM 36.5000 -121.7500 325° Northwest 374 430 20,600 -1,059 Descending Northern Cal TRACON
Mon 01:14:41 AM 36.5833 -121.8167 327° Northwest 353 406 20,000 -1,095 Descending Northern Cal TRACON
Mon 01:15:47 AM 36.6667 -121.9000 321° Northwest 354 407 18,300 -1,654 Descending Northern Cal TRACON
Mon 01:16:48 AM 36.7500 -121.9667 327° Northwest 334 384 16,500 -1,800 Descending Northern Cal TRACON
Mon 01:17:47 AM 36.8333 -121.9833 351° North 335 386 14,700 -1,815 Descending Northern Cal TRACON
Mon 01:18:47 AM 36.9333 -122.0167 345° North 331 381 12,900 -1,579 Descending Northern Cal TRACON
Mon 01:19:03 AM 36.9372 -122.0131 37° Northeast 331 381 12,700 -1,558 Descending Oakland Center
Mon 01:20:04 AM 37.0253 -122.0356 348° North 325 374 10,900 -1,339 Descending Oakland Center
Mon 01:21:04 AM 37.1206 -122.0614 348° North 298 343 10,000 -446 Descending Oakland Center
Mon 01:22:05 AM 37.1950 -122.0825 347° North 279 321 10,000 -541 Level Oakland Center
Mon 01:23:06 AM 37.2581 -122.0992 348° North 241 277 8,900 -1,140 Descending Oakland Center
Mon 01:24:06 AM 37.3236 -122.1092 353° North 234 269 7,700 -1,190 Descending Oakland Center
Mon 01:25:07 AM 37.3906 -122.1039 North 240 276 6,500 -1,069 Descending Oakland Center
Mon 01:25:47 AM 37.4333 -122.1000 North 222 255 5,900 -720 Descending Northern Cal TRACON
Mon 01:26:47 AM 37.4833 -122.0833 15° North 176 203 5,300 -900 Descending Northern Cal TRACON
Mon 01:27:47 AM 37.5167 -122.1167 322° Northwest 180 207 4,100 -1,024 Descending Northern Cal TRACON
Mon 01:28:09 AM 37.5228 -122.1311 298° West 179 206 3,900 -940 Descending Oakland Center
Mon 01:29:10 AM 37.5378 -122.1922 287° West 181 208 2,800 -984 Descending Oakland Center
Mon 01:30:11 AM 37.5606 -122.2453 298° West 178 205 1,900 -836 Descending Oakland Center
Mon 01:31:12 AM 37.5828 -122.2931 300° West 169 194 1,100 -694 Descending Oakland Center
Mon 01:32:12 AM 37.5992 -122.3328 298° West 149 171 500 -446 Descending Oakland Center
Mon 01:33:13 AM 37.6183 -122.3786 298° West 142 163 200 -295 Descending Oakland Center

Login

Don't have an account? Register now (free) for customized features, flight alerts, and more!